Time;durP1;ratioP1;P1;durP2;ratioP2;P2;SDS_P1;SDS_P2;PMS_P1;PMS_P2;Temp;Humidity;BMP_temperature;BMP_pressure;BME280_temperature;BME280_humidity;BME280_pressure;Samples;Min_cycle;Max_cycle;Signal;HPM_P1;HPM_P2
2022/06/01 00:01:07;;;;;;;;;;;12.50;99.90;;;;;;5010822;28;19952;-77
2022/06/01 00:03:35;;;;;;;;;;;12.60;99.90;;;;;;5008158;28;20632;-77
2022/06/01 00:06:01;;;;;;;;;;;12.70;99.90;;;;;;5011513;28;19925;-77
2022/06/01 00:08:26;;;;;;;;;;;12.70;99.90;;;;;;5013213;28;19935;-77
2022/06/01 00:10:53;;;;;;;;;;;12.70;99.90;;;;;;5001222;28;20047;-77
2022/06/01 00:13:19;;;;;;;;;;;12.70;99.90;;;;;;5012738;28;19975;-77
2022/06/01 00:15:45;;;;;;;;;;;12.80;99.90;;;;;;5007760;28;20015;-77
2022/06/01 00:18:11;;;;;;;;;;;12.70;99.90;;;;;;5009577;28;20407;-77
2022/06/01 00:20:37;;;;;;;;;;;12.70;99.90;;;;;;5016645;28;19939;-77
2022/06/01 00:23:03;;;;;;;;;;;12.80;99.90;;;;;;5031688;28;19932;-77
2022/06/01 00:25:29;;;;;;;;;;;12.80;99.90;;;;;;5026731;28;19928;-77
2022/06/01 00:27:55;;;;;;;;;;;12.70;99.90;;;;;;5029136;28;19929;-77
2022/06/01 00:30:21;;;;;;;;;;;12.60;99.90;;;;;;5028409;28;19979;-77
2022/06/01 00:32:47;;;;;;;;;;;12.70;99.90;;;;;;5027236;28;19940;-77
2022/06/01 00:35:14;;;;;;;;;;;12.60;99.90;;;;;;5027091;28;19928;-77
2022/06/01 00:37:40;;;;;;;;;;;12.60;99.90;;;;;;5025785;28;19928;-77
2022/06/01 00:40:06;;;;;;;;;;;12.60;99.90;;;;;;5028049;28;21432;-77
2022/06/01 00:42:34;;;;;;;;;;;12.60;99.90;;;;;;5028508;28;20010;-77
2022/06/01 00:44:59;;;;;;;;;;;12.60;99.90;;;;;;5024909;28;19928;-77
2022/06/01 00:47:26;;;;;;;;;;;12.50;99.90;;;;;;5027030;28;19940;-77
2022/06/01 00:49:59;;;;;;;;;;;12.50;99.90;;;;;;5025596;28;20418;-77
2022/06/01 00:52:35;;;;;;;;;;;12.50;99.90;;;;;;5027611;28;20011;-77
2022/06/01 00:55:03;;;;;;;;;;;12.40;99.90;;;;;;5028231;28;20000;-77
2022/06/01 00:57:29;;;;;;;;;;;12.40;99.90;;;;;;5026813;28;19928;-77
2022/06/01 00:59:56;;;;;;;;;;;12.40;99.90;;;;;;5028265;28;19977;-77
2022/06/01 01:02:22;;;;;;;;;;;12.40;99.90;;;;;;5025786;28;19936;-77
2022/06/01 01:04:48;;;;;;;;;;;12.40;99.90;;;;;;5026029;28;20507;-77
2022/06/01 01:07:13;;;;;;;;;;;12.40;99.90;;;;;;5027353;28;19929;-77
2022/06/01 01:09:39;;;;;;;;;;;12.30;99.90;;;;;;4999750;28;19932;-77
2022/06/01 01:12:07;;;;;;;;;;;12.30;99.90;;;;;;5025208;28;20302;-77
2022/06/01 01:14:35;;;;;;;;;;;12.40;99.90;;;;;;5028399;28;19933;-76
2022/06/01 01:17:01;;;;;;;;;;;12.40;99.90;;;;;;5025313;28;19947;-77
2022/06/01 01:19:30;;;;;;;;;;;12.40;99.90;;;;;;5029107;28;19951;-76
2022/06/01 01:21:56;;;;;;;;;;;12.40;99.90;;;;;;5028504;28;19935;-76
2022/06/01 01:24:28;;;;;;;;;;;12.40;99.90;;;;;;5026543;28;19925;-77
2022/06/01 01:26:56;;;;;;;;;;;12.30;99.90;;;;;;5028484;28;19964;-77
2022/06/01 01:29:31;;;;;;;;;;;12.20;99.90;;;;;;5026370;28;19928;-77
2022/06/01 01:31:57;;;;;;;;;;;12.20;99.90;;;;;;5029696;28;19928;-77
2022/06/01 01:34:22;;;;;;;;;;;12.10;99.90;;;;;;5027855;28;20652;-77
2022/06/01 01:36:50;;;;;;;;;;;12.10;99.90;;;;;;5011596;28;20402;-77
2022/06/01 01:39:16;;;;;;;;;;;12.10;99.90;;;;;;5026488;28;20047;-77
2022/06/01 01:41:46;;;;;;;;;;;12.10;99.90;;;;;;5027264;28;20103;-77
2022/06/01 01:44:15;;;;;;;;;;;12.10;99.90;;;;;;5026604;28;19990;-77
2022/06/01 01:46:43;;;;;;;;;;;12.10;99.90;;;;;;5026765;28;19928;-77
2022/06/01 01:49:08;;;;;;;;;;;12.10;99.90;;;;;;5029327;28;19940;-76
2022/06/01 01:51:34;;;;;;;;;;;12.10;99.90;;;;;;5027278;28;19951;-77
2022/06/01 01:54:00;;;;;;;;;;;12.10;99.90;;;;;;5015906;28;20285;-76
2022/06/01 01:56:32;;;;;;;;;;;12.10;99.90;;;;;;5026980;28;19929;-77
2022/06/01 01:59:09;;;;;;;;;;;12.00;99.90;;;;;;5028603;28;19932;-76
2022/06/01 02:01:42;;;;;;;;;;;12.00;99.90;;;;;;5026123;28;19933;-76
2022/06/01 02:07:03;;;;;;;;;;;12.00;99.90;;;;;;5030167;28;19929;-77
2022/06/01 02:12:41;;;;;;;;;;;11.90;99.90;;;;;;5031942;28;20043;-77
2022/06/01 02:15:00;;;;;;;;;;;11.90;99.90;;;;;;5031255;28;20025;-77
2022/06/01 02:17:30;;;;;;;;;;;11.90;99.90;;;;;;5003834;28;20039;-77
2022/06/01 02:20:01;;;;;;;;;;;11.90;99.90;;;;;;5033190;28;19935;-77
2022/06/01 02:22:27;;;;;;;;;;;11.80;99.90;;;;;;5032283;28;19929;-77
2022/06/01 02:24:53;;;;;;;;;;;11.80;99.90;;;;;;5016547;28;19951;-77
2022/06/01 02:27:19;;;;;;;;;;;11.70;99.90;;;;;;5033110;28;19928;-77
2022/06/01 02:29:49;;;;;;;;;;;11.70;99.90;;;;;;5031238;28;20299;-78
2022/06/01 02:32:16;;;;;;;;;;;11.70;99.90;;;;;;5016082;28;19976;-77
2022/06/01 02:34:43;;;;;;;;;;;11.70;99.90;;;;;;5033262;28;19932;-77
2022/06/01 02:37:09;;;;;;;;;;;11.70;99.90;;;;;;5035684;28;20360;-77
2022/06/01 02:39:36;;;;;;;;;;;11.70;99.90;;;;;;5034508;28;20020;-78
2022/06/01 02:42:25;;;;;;;;;;;11.70;99.90;;;;;;5034182;28;20944;-77
2022/06/01 02:44:54;;;;;;;;;;;11.70;99.90;;;;;;5031512;28;19929;-77
2022/06/01 02:47:21;;;;;;;;;;;11.70;99.90;;;;;;5028730;28;20473;-77
2022/06/01 02:49:47;;;;;;;;;;;11.60;99.90;;;;;;5030034;28;19935;-78
2022/06/01 02:52:13;;;;;;;;;;;11.60;99.90;;;;;;5029663;28;19925;-78
2022/06/01 02:54:38;;;;;;;;;;;11.60;99.90;;;;;;5030170;28;19979;-77
2022/06/01 02:57:04;;;;;;;;;;;11.60;99.90;;;;;;5028755;28;19935;-78
2022/06/01 02:59:29;;;;;;;;;;;11.60;99.90;;;;;;5031122;28;20471;-77
2022/06/01 03:01:55;;;;;;;;;;;11.60;99.90;;;;;;5014498;28;19932;-79
2022/06/01 03:04:21;;;;;;;;;;;11.60;99.90;;;;;;5029379;28;19929;-78
2022/06/01 03:06:47;;;;;;;;;;;11.60;99.90;;;;;;5029902;28;19928;-79
2022/06/01 03:09:12;;;;;;;;;;;11.60;99.90;;;;;;5031875;28;20408;-78
2022/06/01 03:11:38;;;;;;;;;;;11.50;99.90;;;;;;5030017;28;20386;-77
2022/06/01 03:14:04;;;;;;;;;;;11.60;99.90;;;;;;5028411;28;20035;-78
2022/06/01 03:16:29;;;;;;;;;;;11.60;99.90;;;;;;5027428;28;19967;-78
2022/06/01 03:18:55;;;;;;;;;;;11.50;99.90;;;;;;5030613;28;19925;-77
2022/06/01 03:21:20;;;;;;;;;;;11.50;99.90;;;;;;5029634;28;20293;-76
2022/06/01 03:23:46;;;;;;;;;;;11.60;99.90;;;;;;5030424;28;20688;-77
2022/06/01 03:26:12;;;;;;;;;;;11.60;99.90;;;;;;5014603;28;20506;-77
2022/06/01 03:28:39;;;;;;;;;;;11.60;99.90;;;;;;5030357;28;19933;-77
2022/06/01 03:31:06;;;;;;;;;;;11.60;99.90;;;;;;5028184;28;19944;-76
2022/06/01 03:33:32;;;;;;;;;;;11.70;99.90;;;;;;5028642;28;20027;-77
2022/06/01 03:35:57;;;;;;;;;;;11.60;99.90;;;;;;5030665;28;20450;-77
2022/06/01 03:38:23;;;;;;;;;;;11.70;99.90;;;;;;5015540;28;19935;-77
2022/06/01 03:40:48;;;;;;;;;;;11.70;99.90;;;;;;5029180;28;19933;-77
2022/06/01 03:43:14;;;;;;;;;;;11.70;99.90;;;;;;5028665;28;19933;-77
2022/06/01 03:45:56;;;;;;;;;;;11.70;99.90;;;;;;5027871;28;19925;-77
2022/06/01 03:48:31;;;;;;;;;;;11.70;99.90;;;;;;5031102;28;19928;-76
2022/06/01 03:50:57;;;;;;;;;;;11.70;99.90;;;;;;5028830;28;19928;-77
2022/06/01 03:53:24;;;;;;;;;;;11.70;99.90;;;;;;5030778;28;19928;-77
2022/06/01 03:55:50;;;;;;;;;;;11.60;99.90;;;;;;5029197;28;19929;-77
2022/06/01 03:58:17;;;;;;;;;;;11.70;99.90;;;;;;5029237;28;19972;-78
2022/06/01 04:00:43;;;;;;;;;;;11.70;99.90;;;;;;5030331;28;20071;-78
2022/06/01 04:03:09;;;;;;;;;;;11.60;99.90;;;;;;5027229;28;20384;-77
2022/06/01 04:05:35;;;;;;;;;;;11.60;99.90;;;;;;5018017;28;20007;-76
2022/06/01 04:08:02;;;;;;;;;;;11.60;99.90;;;;;;5021349;28;19948;-76
2022/06/01 04:10:27;;;;;;;;;;;11.60;99.90;;;;;;5020872;28;19928;-76
2022/06/01 04:12:53;;;;;;;;;;;11.60;99.90;;;;;;4998170;28;20324;-76
2022/06/01 04:15:19;;;;;;;;;;;11.60;99.90;;;;;;5019088;28;21001;-76
2022/06/01 04:17:45;;;;;;;;;;;11.70;99.90;;;;;;5018138;28;19939;-76
2022/06/01 04:20:11;;;;;;;;;;;11.70;99.90;;;;;;5020780;28;19928;-76
2022/06/01 04:22:39;;;;;;;;;;;11.80;99.90;;;;;;5017053;28;20705;-76
2022/06/01 04:25:05;;;;;;;;;;;11.80;99.90;;;;;;5012037;28;19932;-76
2022/06/01 04:27:30;;;;;;;;;;;11.90;99.90;;;;;;5014726;28;20003;-76
2022/06/01 04:29:56;;;;;;;;;;;11.90;99.90;;;;;;5017667;28;20448;-76
2022/06/01 04:32:24;;;;;;;;;;;12.00;99.90;;;;;;5017555;28;19929;-76
2022/06/01 04:34:50;;;;;;;;;;;11.90;99.90;;;;;;5017059;28;20032;-76
2022/06/01 04:37:15;;;;;;;;;;;12.00;99.90;;;;;;5002077;28;19942;-76
2022/06/01 04:39:41;;;;;;;;;;;12.00;99.90;;;;;;5003297;28;19938;-76
2022/06/01 04:42:07;;;;;;;;;;;11.80;99.90;;;;;;5003055;28;20534;-76
2022/06/01 04:44:33;;;;;;;;;;;11.80;99.90;;;;;;5000044;28;20381;-76
2022/06/01 04:46:58;;;;;;;;;;;11.80;99.90;;;;;;5000611;28;19933;-76
2022/06/01 04:49:24;;;;;;;;;;;11.80;99.90;;;;;;5000952;28;20739;-76
2022/06/01 04:51:50;;;;;;;;;;;11.80;99.90;;;;;;5002431;28;19959;-76
2022/06/01 04:54:15;;;;;;;;;;;11.80;99.90;;;;;;4983731;28;19929;-76
2022/06/01 04:56:41;;;;;;;;;;;12.00;99.90;;;;;;5001097;28;20011;-76
2022/06/01 04:59:07;;;;;;;;;;;12.00;99.90;;;;;;4997942;28;20924;-76
2022/06/01 05:01:32;;;;;;;;;;;12.10;99.90;;;;;;5000675;28;20015;-77
2022/06/01 05:03:58;;;;;;;;;;;12.10;99.90;;;;;;5013150;28;20381;-76
2022/06/01 05:06:24;;;;;;;;;;;12.10;99.90;;;;;;5009134;28;20375;-76
2022/06/01 05:08:50;;;;;;;;;;;12.10;99.90;;;;;;5000309;28;20109;-77
2022/06/01 05:11:16;;;;;;;;;;;12.10;99.90;;;;;;5006740;28;19964;-77
2022/06/01 05:13:42;;;;;;;;;;;12.20;99.90;;;;;;4996809;28;20059;-77
2022/06/01 05:16:07;;;;;;;;;;;12.20;99.90;;;;;;5015242;28;19936;-77
2022/06/01 05:18:33;;;;;;;;;;;12.20;99.90;;;;;;5023770;28;19929;-77
2022/06/01 05:20:59;;;;;;;;;;;12.20;99.90;;;;;;5029192;28;19960;-78
2022/06/01 05:23:25;;;;;;;;;;;12.20;99.90;;;;;;4986424;28;19935;-77
2022/06/01 05:25:52;;;;;;;;;;;12.30;99.90;;;;;;5029346;28;19978;-77
2022/06/01 05:28:19;;;;;;;;;;;12.40;99.90;;;;;;5017390;28;20586;-76
2022/06/01 05:30:45;;;;;;;;;;;12.60;99.90;;;;;;5030924;28;19928;-76
2022/06/01 05:33:10;;;;;;;;;;;14.10;99.90;;;;;;5030463;28;20733;-77
2022/06/01 05:35:36;;;;;;;;;;;13.80;99.90;;;;;;5032178;28;20471;-77
2022/06/01 05:38:02;;;;;;;;;;;14.00;99.90;;;;;;5029906;28;19932;-76
2022/06/01 05:40:30;;;;;;;;;;;14.10;99.90;;;;;;5032165;28;20192;-76
2022/06/01 05:42:58;;;;;;;;;;;13.90;99.90;;;;;;5031770;28;19928;-76
2022/06/01 05:45:24;;;;;;;;;;;13.80;99.90;;;;;;5033281;28;20901;-76
2022/06/01 05:47:50;;;;;;;;;;;13.70;99.90;;;;;;5029400;28;19929;-77
2022/06/01 05:50:16;;;;;;;;;;;13.60;99.90;;;;;;5000000;28;19952;-78
2022/06/01 05:52:41;;;;;;;;;;;13.30;99.90;;;;;;5031655;28;19981;-76
2022/06/01 05:55:08;;;;;;;;;;;13.30;99.90;;;;;;5031869;28;19933;-76
2022/06/01 05:57:34;;;;;;;;;;;13.30;99.90;;;;;;5029963;28;19929;-77
2022/06/01 06:00:00;;;;;;;;;;;13.30;99.90;;;;;;5031036;28;19929;-77
2022/06/01 06:02:26;;;;;;;;;;;13.30;99.90;;;;;;5030411;28;19955;-77
2022/06/01 06:04:52;;;;;;;;;;;13.50;99.90;;;;;;5029408;28;19929;-77
2022/06/01 06:07:17;;;;;;;;;;;13.50;99.90;;;;;;5032316;28;19951;-76
2022/06/01 06:09:43;;;;;;;;;;;13.60;99.90;;;;;;5030207;28;19982;-76
2022/06/01 06:12:09;;;;;;;;;;;13.80;99.90;;;;;;5031029;28;19933;-76
2022/06/01 06:14:34;;;;;;;;;;;13.90;99.90;;;;;;5030922;28;19932;-76
2022/06/01 06:17:00;;;;;;;;;;;14.70;99.90;;;;;;5028528;28;20020;-77
2022/06/01 06:19:25;;;;;;;;;;;15.30;99.90;;;;;;5031566;28;20561;-77
2022/06/01 06:21:51;;;;;;;;;;;15.50;99.90;;;;;;5032137;28;20066;-77
2022/06/01 06:24:19;;;;;;;;;;;15.30;99.90;;;;;;5029849;28;20413;-76
2022/06/01 06:26:45;;;;;;;;;;;15.10;99.90;;;;;;5029562;28;20660;-77
2022/06/01 06:29:12;;;;;;;;;;;15.00;99.90;;;;;;5028645;28;20015;-78
2022/06/01 06:31:38;;;;;;;;;;;14.60;99.90;;;;;;5029166;28;20360;-77
2022/06/01 06:34:04;;;;;;;;;;;14.40;99.90;;;;;;5028317;28;19926;-77
2022/06/01 06:36:30;;;;;;;;;;;14.40;99.90;;;;;;5029005;28;19928;-77
2022/06/01 06:38:56;;;;;;;;;;;14.30;99.90;;;;;;5030060;28;19952;-78
2022/06/01 06:41:21;;;;;;;;;;;14.40;99.90;;;;;;5028510;28;20004;-77
2022/06/01 06:43:48;;;;;;;;;;;14.50;99.90;;;;;;5029695;28;19929;-77
2022/06/01 06:46:15;;;;;;;;;;;14.60;99.90;;;;;;5028827;28;19975;-77
2022/06/01 06:48:41;;;;;;;;;;;14.50;99.90;;;;;;5028472;28;19936;-77
2022/06/01 06:51:07;;;;;;;;;;;14.60;99.90;;;;;;5033151;28;19929;-78
2022/06/01 06:53:33;;;;;;;;;;;14.40;99.90;;;;;;5032440;28;19933;-78
2022/06/01 06:56:00;;;;;;;;;;;14.30;99.90;;;;;;5032395;28;19944;-80
2022/06/01 06:58:25;;;;;;;;;;;14.30;99.90;;;;;;5034346;28;20360;-78
2022/06/01 07:00:51;;;;;;;;;;;14.20;99.90;;;;;;5032693;28;19929;-77
2022/06/01 07:03:17;;;;;;;;;;;14.20;99.90;;;;;;5031540;28;20323;-77
2022/06/01 07:08:28;;;;;;;;;;;14.20;99.90;;;;;;5034347;28;19936;-78
2022/06/01 07:10:54;;;;;;;;;;;14.10;99.90;;;;;;5033202;28;19935;-80
2022/06/01 07:13:21;;;;;;;;;;;14.20;99.90;;;;;;5015963;28;19929;-78
2022/06/01 07:15:47;;;;;;;;;;;14.10;99.90;;;;;;5033722;28;19935;-78
2022/06/01 07:18:13;;;;;;;;;;;14.10;99.90;;;;;;5032892;28;19925;-77
2022/06/01 07:20:39;;;;;;;;;;;14.20;99.90;;;;;;5033283;28;20023;-77
2022/06/01 07:23:05;;;;;;;;;;;14.20;99.90;;;;;;5032931;28;20411;-77
2022/06/01 07:25:31;;;;;;;;;;;14.30;99.90;;;;;;5032199;28;19940;-78
2022/06/01 07:27:57;;;;;;;;;;;14.30;99.90;;;;;;5031280;28;19928;-78
2022/06/01 07:30:23;;;;;;;;;;;14.40;99.90;;;;;;5032898;28;20020;-78
2022/06/01 07:32:49;;;;;;;;;;;14.40;99.90;;;;;;5032874;28;20366;-80
2022/06/01 07:35:15;;;;;;;;;;;14.50;99.90;;;;;;5030471;28;19932;-77
2022/06/01 07:43:10;;;;;;;;;;;14.90;99.90;;;;;;5032837;28;19956;-77
2022/06/01 07:45:37;;;;;;;;;;;15.10;99.90;;;;;;5032001;28;20408;-78
2022/06/01 07:48:04;;;;;;;;;;;15.30;99.90;;;;;;5031019;28;19986;-77
2022/06/01 07:50:29;;;;;;;;;;;15.40;99.90;;;;;;5033330;28;19929;-78
2022/06/01 07:52:55;;;;;;;;;;;15.60;99.90;;;;;;5033386;28;20286;-77
2022/06/01 07:55:21;;;;;;;;;;;15.50;99.90;;;;;;5031805;28;19982;-78
2022/06/01 07:57:47;;;;;;;;;;;15.40;99.90;;;;;;5033714;28;19936;-77
2022/06/01 08:00:13;;;;;;;;;;;15.70;99.90;;;;;;5033973;28;19943;-79
2022/06/01 08:02:39;;;;;;;;;;;16.40;99.90;;;;;;5033633;28;19933;-79
2022/06/01 08:05:05;;;;;;;;;;;16.80;99.90;;;;;;5025873;28;19936;-79
2022/06/01 08:07:31;;;;;;;;;;;16.80;99.90;;;;;;5026930;28;19924;-79
2022/06/01 08:09:57;;;;;;;;;;;17.20;99.90;;;;;;5026686;28;20570;-80
2022/06/01 08:15:08;;;;;;;;;;;17.90;99.90;;;;;;5032006;28;20323;-79
2022/06/01 08:17:33;;;;;;;;;;;17.90;99.90;;;;;;5030922;28;20038;-79
2022/06/01 08:19:59;;;;;;;;;;;18.10;99.90;;;;;;5032134;28;20344;-82
2022/06/01 08:22:25;;;;;;;;;;;18.20;99.90;;;;;;5016931;28;19933;-81
2022/06/01 08:24:50;;;;;;;;;;;18.20;99.90;;;;;;5019036;28;20309;-81
2022/06/01 08:27:16;;;;;;;;;;;18.50;99.90;;;;;;5028158;28;19990;-80
2022/06/01 08:29:42;;;;;;;;;;;18.80;99.90;;;;;;5029681;28;19928;-80
2022/06/01 08:32:08;;;;;;;;;;;19.00;99.90;;;;;;5029180;28;19929;-79
2022/06/01 08:34:35;;;;;;;;;;;18.80;99.90;;;;;;5031754;28;19990;-81
2022/06/01 08:37:00;;;;;;;;;;;19.00;99.90;;;;;;5000012;28;19936;-80
2022/06/01 08:39:26;;;;;;;;;;;18.80;99.90;;;;;;5030652;28;19929;-80
2022/06/01 08:41:52;;;;;;;;;;;18.50;99.90;;;;;;5030521;28;19929;-80
2022/06/01 08:44:28;;;;;;;;;;;18.60;99.90;;;;;;5031793;28;20375;-78
2022/06/01 08:46:56;;;;;;;;;;;19.40;99.90;;;;;;5029959;28;19928;-79
2022/06/01 08:49:26;;;;;;;;;;;19.30;99.90;;;;;;5031464;28;19972;-79
2022/06/01 08:51:52;;;;;;;;;;;19.00;99.90;;;;;;5014240;28;19924;-79
2022/06/01 08:54:17;;;;;;;;;;;18.50;99.90;;;;;;5029353;28;19929;-80
2022/06/01 08:56:44;;;;;;;;;;;18.20;99.90;;;;;;5031135;28;19936;-79
2022/06/01 08:59:26;;;;;;;;;;;16.80;99.90;;;;;;5030519;28;20007;-78
2022/06/01 09:02:05;;;;;;;;;;;15.60;99.90;;;;;;5031116;28;20015;-77
2022/06/01 09:05:04;;;;;;;;;;;14.80;99.90;;;;;;5030695;28;19925;-80
2022/06/01 09:07:33;;;;;;;;;;;14.00;99.90;;;;;;4996168;28;20635;-77
2022/06/01 09:09:59;;;;;;;;;;;13.50;99.90;;;;;;5028760;28;20154;-77
2022/06/01 09:12:24;;;;;;;;;;;13.00;99.90;;;;;;5031815;28;20289;-80
2022/06/01 09:14:52;;;;;;;;;;;12.50;99.90;;;;;;5031022;28;20293;-79
2022/06/01 09:17:18;;;;;;;;;;;12.20;99.90;;;;;;5030197;28;19937;-79
2022/06/01 09:22:37;;;;;;;;;;;12.20;99.90;;;;;;5007879;28;19929;-78
2022/06/01 09:25:05;;;;;;;;;;;12.00;99.90;;;;;;5026534;28;19983;-78
2022/06/01 09:27:38;;;;;;;;;;;11.50;99.90;;;;;;5029920;28;20390;-77
2022/06/01 09:30:23;;;;;;;;;;;11.40;99.90;;;;;;5030653;28;19986;-77
2022/06/01 09:33:02;;;;;;;;;;;11.40;99.90;;;;;;5030928;28;19929;-78
2022/06/01 09:35:29;;;;;;;;;;;12.10;99.90;;;;;;5033287;28;20193;-77
2022/06/01 09:37:55;;;;;;;;;;;12.90;99.90;;;;;;5002584;28;19936;-77
2022/06/01 09:40:21;;;;;;;;;;;13.80;99.90;;;;;;5030396;28;19929;-77
2022/06/01 09:42:48;;;;;;;;;;;14.40;99.90;;;;;;5032394;28;20015;-76
2022/06/01 09:45:22;;;;;;;;;;;14.90;99.90;;;;;;5031695;28;20111;-76
2022/06/01 09:47:50;;;;;;;;;;;15.00;99.90;;;;;;5031841;28;19939;-76
2022/06/01 09:50:29;;;;;;;;;;;14.90;99.90;;;;;;5031255;28;20434;-75
2022/06/01 09:52:57;;;;;;;;;;;15.20;99.90;;;;;;5032099;28;19952;-75
2022/06/01 09:55:28;;;;;;;;;;;15.70;99.90;;;;;;5031617;28;19951;-74
2022/06/01 09:58:01;;;;;;;;;;;15.80;99.90;;;;;;5031851;28;20456;-75
2022/06/01 10:06:28;;;;;;;;;;;17.10;99.90;;;;;;5021568;28;20344;-75
2022/06/01 10:08:57;;;;;;;;;;;17.30;99.90;;;;;;5029261;28;20031;-74
2022/06/01 10:11:31;;;;;;;;;;;17.80;99.90;;;;;;4998274;28;20352;-75
2022/06/01 10:14:03;;;;;;;;;;;18.00;99.90;;;;;;5029510;28;20278;-74
2022/06/01 10:16:35;;;;;;;;;;;18.10;99.90;;;;;;5031852;28;19929;-74
2022/06/01 10:19:01;;;;;;;;;;;18.50;99.90;;;;;;5030186;28;19936;-75
2022/06/01 10:21:29;;;;;;;;;;;18.60;99.90;;;;;;5030198;28;19986;-75
2022/06/01 10:24:04;;;;;;;;;;;18.90;99.90;;;;;;5034873;28;19929;-74
2022/06/01 10:26:43;;;;;;;;;;;16.90;99.90;;;;;;5033381;28;19924;-75
2022/06/01 10:29:13;;;;;;;;;;;17.50;99.90;;;;;;5032367;28;20353;-73
2022/06/01 10:31:44;;;;;;;;;;;18.50;99.90;;;;;;5035990;28;19929;-74
2022/06/01 10:34:19;;;;;;;;;;;18.00;99.90;;;;;;5033838;28;19932;-74
2022/06/01 10:37:03;;;;;;;;;;;18.40;99.90;;;;;;5035901;28;19972;-74
2022/06/01 10:39:38;;;;;;;;;;;18.40;99.90;;;;;;5032913;28;20156;-75
2022/06/01 10:42:03;;;;;;;;;;;17.70;99.90;;;;;;5033778;28;20374;-75
2022/06/01 10:44:38;;;;;;;;;;;16.90;99.90;;;;;;5034544;28;19933;-74
2022/06/01 10:47:08;;;;;;;;;;;17.30;99.90;;;;;;5032974;28;19928;-76
2022/06/01 10:49:38;;;;;;;;;;;15.90;99.90;;;;;;5035181;28;19924;-76
2022/06/01 10:52:10;;;;;;;;;;;14.90;99.90;;;;;;5033340;28;19953;-76
2022/06/01 10:54:41;;;;;;;;;;;15.00;99.90;;;;;;5034213;28;19928;-77
2022/06/01 10:57:09;;;;;;;;;;;15.00;99.90;;;;;;5033807;28;19978;-77
2022/06/01 10:59:34;;;;;;;;;;;15.10;99.90;;;;;;5033722;28;19939;-77
2022/06/01 11:02:10;;;;;;;;;;;15.00;99.90;;;;;;5033272;28;19932;-77
2022/06/01 11:04:44;;;;;;;;;;;14.90;99.90;;;;;;5035155;28;19928;-80
2022/06/01 11:07:10;;;;;;;;;;;15.00;99.90;;;;;;5033419;28;20018;-79
2022/06/01 11:09:48;;;;;;;;;;;14.80;99.90;;;;;;5032239;28;20019;-78
2022/06/01 11:12:22;;;;;;;;;;;14.30;99.90;;;;;;5032341;28;19983;-78
2022/06/01 11:15:05;;;;;;;;;;;14.00;99.90;;;;;;5032672;28;20374;-81
2022/06/01 11:17:30;;;;;;;;;;;14.20;99.90;;;;;;5031220;28;20386;-84
2022/06/01 11:20:02;;;;;;;;;;;13.00;99.90;;;;;;5035044;28;19933;-86
2022/06/01 11:22:40;;;;;;;;;;;12.30;99.90;;;;;;5033211;28;20412;-82
2022/06/01 11:25:18;;;;;;;;;;;12.00;99.90;;;;;;5033322;28;19929;-82
2022/06/01 11:27:43;;;;;;;;;;;12.20;99.90;;;;;;5038728;28;20590;-81
2022/06/01 11:30:14;;;;;;;;;;;12.20;99.90;;;;;;5032560;28;19928;-81
2022/06/01 11:32:50;;;;;;;;;;;12.40;99.90;;;;;;5033623;28;20011;-79
2022/06/01 11:35:19;;;;;;;;;;;13.00;99.90;;;;;;5031638;28;20446;-79
2022/06/01 11:38:03;;;;;;;;;;;13.10;99.90;;;;;;5033421;28;19998;-81
2022/06/01 11:40:40;;;;;;;;;;;13.10;99.90;;;;;;5033704;28;19933;-79
2022/06/01 11:43:29;;;;;;;;;;;13.30;99.90;;;;;;5032424;28;19929;-79
2022/06/01 11:45:57;;;;;;;;;;;13.50;99.90;;;;;;5033990;28;19933;-78
2022/06/01 11:48:25;;;;;;;;;;;13.90;99.90;;;;;;5000820;28;19954;-80
2022/06/01 11:50:51;;;;;;;;;;;14.20;99.90;;;;;;5033358;28;19933;-78
2022/06/01 11:53:21;;;;;;;;;;;14.00;99.90;;;;;;5033217;28;19989;-78
2022/06/01 11:55:48;;;;;;;;;;;13.80;99.90;;;;;;5035591;28;20078;-79
2022/06/01 11:58:21;;;;;;;;;;;13.90;99.90;;;;;;5029651;28;20264;-79
2022/06/01 12:00:51;;;;;;;;;;;14.30;99.90;;;;;;5033450;28;19932;-78
2022/06/01 12:03:17;;;;;;;;;;;14.50;99.90;;;;;;5034080;28;19929;-77
2022/06/01 12:06:03;;;;;;;;;;;14.70;99.90;;;;;;5032003;28;20417;-77
2022/06/01 12:08:32;;;;;;;;;;;15.10;99.90;;;;;;5033409;28;19952;-77
2022/06/01 12:11:00;;;;;;;;;;;15.60;99.90;;;;;;5032187;28;19936;-77
2022/06/01 12:13:27;;;;;;;;;;;16.00;99.90;;;;;;5033332;28;19925;-76
2022/06/01 12:16:08;;;;;;;;;;;16.30;99.90;;;;;;5031449;28;19979;-76
2022/06/01 12:18:35;;;;;;;;;;;16.60;99.90;;;;;;5030923;28;19936;-77
2022/06/01 12:21:15;;;;;;;;;;;16.80;99.90;;;;;;5029404;28;19968;-76
2022/06/01 12:29:50;;;;;;;;;;;18.00;99.90;;;;;;4992100;28;19936;-76
2022/06/01 12:32:16;;;;;;;;;;;18.20;99.90;;;;;;5006638;28;20676;-77
2022/06/01 12:34:44;;;;;;;;;;;17.90;99.90;;;;;;4982644;28;19984;-76
2022/06/01 12:37:17;;;;;;;;;;;17.70;99.90;;;;;;5010980;28;19929;-76
2022/06/01 12:39:46;;;;;;;;;;;17.50;99.90;;;;;;4982541;28;20535;-76
2022/06/01 12:42:27;;;;;;;;;;;17.60;99.90;;;;;;5010201;28;20011;-76
2022/06/01 12:44:55;;;;;;;;;;;17.70;99.90;;;;;;5011529;28;20007;-76
2022/06/01 12:47:33;;;;;;;;;;;17.60;99.90;;;;;;5007177;28;19983;-76
2022/06/01 12:50:07;;;;;;;;;;;17.70;99.90;;;;;;4993749;28;19971;-77
2022/06/01 12:52:33;;;;;;;;;;;17.60;99.90;;;;;;4993653;28;20019;-76
2022/06/01 12:55:00;;;;;;;;;;;17.80;99.90;;;;;;5010771;28;20212;-76
2022/06/01 12:57:25;;;;;;;;;;;17.80;99.90;;;;;;4992323;28;20372;-76
2022/06/01 12:59:56;;;;;;;;;;;18.00;99.90;;;;;;5011676;28;20068;-76
2022/06/01 13:02:22;;;;;;;;;;;18.20;99.90;;;;;;5010270;28;19963;-77
2022/06/01 13:04:52;;;;;;;;;;;18.50;99.90;;;;;;4993617;28;19936;-76
2022/06/01 13:07:19;;;;;;;;;;;18.20;99.90;;;;;;4992529;28;19929;-75
2022/06/01 13:09:44;;;;;;;;;;;18.00;99.90;;;;;;5010672;28;19929;-76
2022/06/01 13:12:17;;;;;;;;;;;17.80;99.90;;;;;;5010677;28;20510;-75
2022/06/01 13:14:44;;;;;;;;;;;17.60;99.90;;;;;;5011312;28;19936;-76
2022/06/01 13:17:11;;;;;;;;;;;17.60;99.90;;;;;;5010449;28;20008;-77
2022/06/01 13:19:39;;;;;;;;;;;17.40;99.90;;;;;;5009809;28;19925;-76
2022/06/01 13:22:05;;;;;;;;;;;17.60;99.90;;;;;;5011318;28;19936;-77
2022/06/01 13:24:34;;;;;;;;;;;18.30;99.90;;;;;;5014515;28;19929;-77
2022/06/01 13:27:00;;;;;;;;;;;18.00;99.90;;;;;;5027118;28;19939;-75
2022/06/01 13:29:48;;;;;;;;;;;18.20;99.90;;;;;;5030812;28;19929;-77
2022/06/01 13:32:14;;;;;;;;;;;18.50;99.90;;;;;;5031696;28;19987;-76
2022/06/01 13:34:42;;;;;;;;;;;18.00;99.90;;;;;;5031404;28;20015;-76
2022/06/01 13:37:11;;;;;;;;;;;18.00;99.90;;;;;;5031989;28;19929;-77
2022/06/01 13:39:40;;;;;;;;;;;17.40;99.90;;;;;;5015834;28;19936;-76
2022/06/01 13:42:06;;;;;;;;;;;17.40;99.90;;;;;;5032924;28;19929;-75
2022/06/01 13:44:48;;;;;;;;;;;18.00;99.90;;;;;;5015479;28;19951;-77
2022/06/01 13:47:18;;;;;;;;;;;18.50;99.90;;;;;;5012968;28;19944;-76
2022/06/01 13:49:44;;;;;;;;;;;18.40;99.90;;;;;;5030951;28;20670;-76
2022/06/01 13:52:13;;;;;;;;;;;18.00;99.90;;;;;;5006168;28;20487;-76
2022/06/01 13:54:39;;;;;;;;;;;17.70;99.90;;;;;;5032212;28;19939;-77
2022/06/01 13:57:19;;;;;;;;;;;17.40;99.90;;;;;;5031131;28;19933;-77
2022/06/01 14:00:04;;;;;;;;;;;17.20;99.90;;;;;;5034548;28;19979;-76
2022/06/01 14:02:30;;;;;;;;;;;16.80;99.90;;;;;;5036751;28;19983;-77
2022/06/01 14:05:00;;;;;;;;;;;16.50;99.90;;;;;;5037292;28;20385;-78
2022/06/01 14:07:26;;;;;;;;;;;15.60;99.90;;;;;;5019253;28;19936;-77
2022/06/01 14:09:58;;;;;;;;;;;15.40;99.90;;;;;;5034339;28;19929;-77
2022/06/01 14:12:24;;;;;;;;;;;15.20;99.90;;;;;;5036289;28;20381;-78
2022/06/01 14:14:51;;;;;;;;;;;15.10;99.90;;;;;;5035192;28;19928;-78
2022/06/01 14:17:18;;;;;;;;;;;15.00;99.90;;;;;;5034637;28;20653;-77
2022/06/01 14:19:43;;;;;;;;;;;14.90;99.90;;;;;;5034570;28;19929;-77
2022/06/01 14:22:11;;;;;;;;;;;14.50;99.90;;;;;;5030885;28;19932;-77
2022/06/01 14:30:08;;;;;;;;;;;14.30;99.90;;;;;;5001267;28;19988;-77
2022/06/01 14:32:34;;;;;;;;;;;14.60;99.90;;;;;;5001519;28;19935;-78
2022/06/01 14:35:00;;;;;;;;;;;14.00;99.90;;;;;;5001377;28;19936;-78
2022/06/01 14:37:26;;;;;;;;;;;14.10;99.90;;;;;;4981474;28;19929;-78
2022/06/01 14:39:52;;;;;;;;;;;14.40;99.90;;;;;;4981751;28;19933;-78
2022/06/01 14:42:18;;;;;;;;;;;14.70;99.90;;;;;;5002334;28;20465;-77
2022/06/01 14:44:43;;;;;;;;;;;15.40;99.90;;;;;;5000777;28;19976;-77
2022/06/01 14:47:09;;;;;;;;;;;15.70;99.90;;;;;;4982196;28;20578;-78
2022/06/01 14:49:35;;;;;;;;;;;15.60;99.90;;;;;;4999951;28;19929;-78
2022/06/01 14:52:03;;;;;;;;;;;15.80;99.90;;;;;;4982054;28;20524;-78
2022/06/01 14:54:31;;;;;;;;;;;15.70;99.90;;;;;;4981254;28;20229;-78
2022/06/01 14:56:56;;;;;;;;;;;15.80;99.90;;;;;;5001179;28;19973;-77
2022/06/01 14:59:22;;;;;;;;;;;15.90;99.90;;;;;;4996344;28;20056;-77